5AR7 weather

Keller Airfield
Weiner, Arkansas, United States

Public forecast

Using degrees Fahrenheit for public forecast. Weather courtesy of forecast.io.

METAR (pilot weather report)

Closest report is Jonesboro Municipal Airport, 11.3 nm (20.9 km) NE. Retrieved 2019/06/25 13:53 UTC (1 hour ago):

KJBR 251353Z AUTO 00000KT 10SM CLR 26/20 A3004 RMK AO2 SLP169 T02560200 $

TAF (pilot weather forecast)

Closest forecast is Jonesboro Municipal Airport, 11.3 nm (20.9 km) NE. Retrieved 2019/06/25 12:22 UTC (3 hours ago):

TAF KJBR 251120Z 2512/2612 23004KT P6SM SCT035 SCT250 FM251400 20007KT P6SM FEW040 SCT250 FM260100 18003KT P6SM BKN250